sensor_id;sensor_type;location;lat;lon;timestamp;temperature;humidity
69990;DHT22;57331;52.054;5.294;2022-08-02T00:00:08;16.70;31.60
69990;DHT22;57331;52.054;5.294;2022-08-02T00:02:36;18.00;45.50
69990;DHT22;57331;52.054;5.294;2022-08-02T00:05:04;16.60;44.70
69990;DHT22;57331;52.054;5.294;2022-08-02T00:10:05;16.80;45.10
69990;DHT22;57331;52.054;5.294;2022-08-02T00:14:59;15.50;44.50
69990;DHT22;57331;52.054;5.294;2022-08-02T00:17:26;18.00;45.70
69990;DHT22;57331;52.054;5.294;2022-08-02T00:29:42;17.90;46.00
69990;DHT22;57331;52.054;5.294;2022-08-02T00:34:46;17.90;46.20
69990;DHT22;57331;52.054;5.294;2022-08-02T00:37:13;17.70;46.10
69990;DHT22;57331;52.054;5.294;2022-08-02T00:42:08;17.60;46.20
69990;DHT22;57331;52.054;5.294;2022-08-02T00:47:04;15.00;45.10
69990;DHT22;57331;52.054;5.294;2022-08-02T00:51:59;15.20;45.40
69990;DHT22;57331;52.054;5.294;2022-08-02T00:56:53;15.40;46.00
69990;DHT22;57331;52.054;5.294;2022-08-02T00:59:20;15.00;45.80
69990;DHT22;57331;52.054;5.294;2022-08-02T01:04:24;16.20;33.30
69990;DHT22;57331;52.054;5.294;2022-08-02T01:07:01;15.50;46.30
69990;DHT22;57331;52.054;5.294;2022-08-02T01:09:42;16.10;33.10
69990;DHT22;57331;52.054;5.294;2022-08-02T01:12:09;16.20;46.70
69990;DHT22;57331;52.054;5.294;2022-08-02T01:14:41;16.10;33.30
69990;DHT22;57331;52.054;5.294;2022-08-02T01:23:01;16.00;33.20
69990;DHT22;57331;52.054;5.294;2022-08-02T01:25:50;16.00;33.20
69990;DHT22;57331;52.054;5.294;2022-08-02T01:30:56;15.90;33.20
69990;DHT22;57331;52.054;5.294;2022-08-02T01:33:31;15.90;33.30
69990;DHT22;57331;52.054;5.294;2022-08-02T01:36:02;16.80;47.30
69990;DHT22;57331;52.054;5.294;2022-08-02T01:38:34;17.00;40.70
69990;DHT22;57331;52.054;5.294;2022-08-02T01:41:04;16.80;36.40
69990;DHT22;57331;52.054;5.294;2022-08-02T01:43:35;16.70;47.30
69990;DHT22;57331;52.054;5.294;2022-08-02T01:46:04;16.00;33.20
69990;DHT22;57331;52.054;5.294;2022-08-02T01:48:32;16.20;33.30
69990;DHT22;57331;52.054;5.294;2022-08-02T01:51:00;16.20;32.90
69990;DHT22;57331;52.054;5.294;2022-08-02T01:53:29;16.90;46.80
69990;DHT22;57331;52.054;5.294;2022-08-02T01:55:58;16.20;32.80
69990;DHT22;57331;52.054;5.294;2022-08-02T01:58:28;15.50;45.70
69990;DHT22;57331;52.054;5.294;2022-08-02T02:00:57;16.20;32.70
69990;DHT22;57331;52.054;5.294;2022-08-02T02:03:26;17.10;46.70
69990;DHT22;57331;52.054;5.294;2022-08-02T02:05:56;16.60;32.90
69990;DHT22;57331;52.054;5.294;2022-08-02T02:08:28;16.40;32.80
69990;DHT22;57331;52.054;5.294;2022-08-02T02:10:57;15.20;32.00
69990;DHT22;57331;52.054;5.294;2022-08-02T02:13:46;15.60;32.50
69990;DHT22;57331;52.054;5.294;2022-08-02T02:18:42;17.00;46.40
69990;DHT22;57331;52.054;5.294;2022-08-02T02:21:12;15.60;38.50
69990;DHT22;57331;52.054;5.294;2022-08-02T02:23:39;15.40;45.90
69990;DHT22;57331;52.054;5.294;2022-08-02T02:26:07;15.60;45.70
69990;DHT22;57331;52.054;5.294;2022-08-02T02:28:37;16.50;32.90
69990;DHT22;57331;52.054;5.294;2022-08-02T02:31:07;17.10;33.10
69990;DHT22;57331;52.054;5.294;2022-08-02T02:33:39;16.50;32.80
69990;DHT22;57331;52.054;5.294;2022-08-02T02:36:07;16.50;32.90
69990;DHT22;57331;52.054;5.294;2022-08-02T02:38:37;16.50;33.00
69990;DHT22;57331;52.054;5.294;2022-08-02T02:41:05;15.30;45.50
69990;DHT22;57331;52.054;5.294;2022-08-02T02:43:33;15.60;45.80
69990;DHT22;57331;52.054;5.294;2022-08-02T02:46:04;15.50;45.90
69990;DHT22;57331;52.054;5.294;2022-08-02T02:48:33;15.80;43.70
69990;DHT22;57331;52.054;5.294;2022-08-02T02:51:03;15.60;45.50
69990;DHT22;57331;52.054;5.294;2022-08-02T02:58:45;15.40;45.30
69990;DHT22;57331;52.054;5.294;2022-08-02T03:01:13;16.60;32.60
69990;DHT22;57331;52.054;5.294;2022-08-02T03:09:11;16.20;46.10
69990;DHT22;57331;52.054;5.294;2022-08-02T03:11:39;16.60;33.00
69990;DHT22;57331;52.054;5.294;2022-08-02T03:14:09;17.20;47.00
69990;DHT22;57331;52.054;5.294;2022-08-02T03:16:51;15.70;46.00
69990;DHT22;57331;52.054;5.294;2022-08-02T03:19:21;16.70;33.00
69990;DHT22;57331;52.054;5.294;2022-08-02T03:21:49;16.70;33.10
69990;DHT22;57331;52.054;5.294;2022-08-02T03:26:54;15.70;45.60
69990;DHT22;57331;52.054;5.294;2022-08-02T03:31:48;18.00;42.20
69990;DHT22;57331;52.054;5.294;2022-08-02T03:34:16;17.10;46.70
69990;DHT22;57331;52.054;5.294;2022-08-02T03:36:45;16.20;46.20
69990;DHT22;57331;52.054;5.294;2022-08-02T03:39:14;18.00;46.90
69990;DHT22;57331;52.054;5.294;2022-08-02T03:41:42;17.70;46.70
69990;DHT22;57331;52.054;5.294;2022-08-02T03:49:06;15.50;45.70
69990;DHT22;57331;52.054;5.294;2022-08-02T03:51:34;15.60;45.80
69990;DHT22;57331;52.054;5.294;2022-08-02T03:54:02;15.60;46.00
69990;DHT22;57331;52.054;5.294;2022-08-02T03:56:29;16.50;46.50
69990;DHT22;57331;52.054;5.294;2022-08-02T03:59:12;16.80;46.60
69990;DHT22;57331;52.054;5.294;2022-08-02T04:01:40;15.50;46.00
69990;DHT22;57331;52.054;5.294;2022-08-02T04:04:07;15.40;45.80
69990;DHT22;57331;52.054;5.294;2022-08-02T04:06:34;17.00;44.40
69990;DHT22;57331;52.054;5.294;2022-08-02T04:11:33;16.10;46.50
69990;DHT22;57331;52.054;5.294;2022-08-02T04:14:07;15.60;46.40
69990;DHT22;57331;52.054;5.294;2022-08-02T04:16:40;16.40;33.40
69990;DHT22;57331;52.054;5.294;2022-08-02T04:19:10;15.80;35.50
69990;DHT22;57331;52.054;5.294;2022-08-02T04:21:42;16.40;33.50
69990;DHT22;57331;52.054;5.294;2022-08-02T04:24:22;16.40;33.50
69990;DHT22;57331;52.054;5.294;2022-08-02T04:26:56;15.90;33.40
69990;DHT22;57331;52.054;5.294;2022-08-02T04:29:34;15.10;46.40
69990;DHT22;57331;52.054;5.294;2022-08-02T04:32:02;16.30;33.80
69990;DHT22;57331;52.054;5.294;2022-08-02T04:36:58;15.10;45.30
69990;DHT22;57331;52.054;5.294;2022-08-02T04:39:26;15.20;47.10
69990;DHT22;57331;52.054;5.294;2022-08-02T04:41:53;15.30;47.20
69990;DHT22;57331;52.054;5.294;2022-08-02T04:44:23;17.10;48.40
69990;DHT22;57331;52.054;5.294;2022-08-02T04:46:51;17.00;48.40
69990;DHT22;57331;52.054;5.294;2022-08-02T04:49:18;17.40;48.70
69990;DHT22;57331;52.054;5.294;2022-08-02T04:56:40;16.70;48.40
69990;DHT22;57331;52.054;5.294;2022-08-02T05:04:02;16.30;34.70
69990;DHT22;57331;52.054;5.294;2022-08-02T05:06:29;16.90;48.80
69990;DHT22;57331;52.054;5.294;2022-08-02T05:08:56;15.20;38.30
69990;DHT22;57331;52.054;5.294;2022-08-02T05:14:05;17.20;48.60
69990;DHT22;57331;52.054;5.294;2022-08-02T05:19:00;17.70;49.00
69990;DHT22;57331;52.054;5.294;2022-08-02T05:23:55;16.60;48.00
69990;DHT22;57331;52.054;5.294;2022-08-02T05:26:22;15.80;47.50
69990;DHT22;57331;52.054;5.294;2022-08-02T05:31:16;17.50;48.20
69990;DHT22;57331;52.054;5.294;2022-08-02T05:33:43;15.50;47.00
69990;DHT22;57331;52.054;5.294;2022-08-02T05:36:10;17.70;48.00
69990;DHT22;57331;52.054;5.294;2022-08-02T05:41:05;16.10;47.00
69990;DHT22;57331;52.054;5.294;2022-08-02T05:43:32;18.00;47.90
69990;DHT22;57331;52.054;5.294;2022-08-02T05:45:59;18.30;47.90
69990;DHT22;57331;52.054;5.294;2022-08-02T05:48:26;18.10;47.70
69990;DHT22;57331;52.054;5.294;2022-08-02T05:51:11;17.20;33.60
69990;DHT22;57331;52.054;5.294;2022-08-02T05:53:53;18.60;47.70
69990;DHT22;57331;52.054;5.294;2022-08-02T05:56:44;18.60;47.70
69990;DHT22;57331;52.054;5.294;2022-08-02T05:59:20;17.40;33.60
69990;DHT22;57331;52.054;5.294;2022-08-02T06:01:55;16.50;38.30
69990;DHT22;57331;52.054;5.294;2022-08-02T06:04:26;18.40;47.10
69990;DHT22;57331;52.054;5.294;2022-08-02T06:07:00;17.50;33.30
69990;DHT22;57331;52.054;5.294;2022-08-02T06:12:01;16.70;46.10
69990;DHT22;57331;52.054;5.294;2022-08-02T06:14:32;16.70;46.20
69990;DHT22;57331;52.054;5.294;2022-08-02T06:17:03;17.60;33.30
69990;DHT22;57331;52.054;5.294;2022-08-02T06:19:31;17.70;33.30
69990;DHT22;57331;52.054;5.294;2022-08-02T06:22:17;18.60;47.10
69990;DHT22;57331;52.054;5.294;2022-08-02T06:25:05;16.70;46.00
69990;DHT22;57331;52.054;5.294;2022-08-02T06:27:52;19.40;44.80
69990;DHT22;57331;52.054;5.294;2022-08-02T06:32:49;18.00;46.20
69990;DHT22;57331;52.054;5.294;2022-08-02T06:35:17;16.80;45.80
69990;DHT22;57331;52.054;5.294;2022-08-02T06:37:50;18.60;46.50
69990;DHT22;57331;52.054;5.294;2022-08-02T06:40:35;18.10;32.90
69990;DHT22;57331;52.054;5.294;2022-08-02T06:46:08;17.20;39.30
69990;DHT22;57331;52.054;5.294;2022-08-02T06:51:22;17.40;45.20
69990;DHT22;57331;52.054;5.294;2022-08-02T06:53:49;17.40;45.00
69990;DHT22;57331;52.054;5.294;2022-08-02T06:56:16;19.10;45.60
69990;DHT22;57331;52.054;5.294;2022-08-02T07:01:11;19.20;32.50
69990;DHT22;57331;52.054;5.294;2022-08-02T07:03:39;20.10;45.50
69990;DHT22;57331;52.054;5.294;2022-08-02T07:06:07;19.40;32.40
69990;DHT22;57331;52.054;5.294;2022-08-02T07:08:35;19.40;32.20
69990;DHT22;57331;52.054;5.294;2022-08-02T07:11:07;19.60;32.00
69990;DHT22;57331;52.054;5.294;2022-08-02T07:16:06;18.40;43.60
69990;DHT22;57331;52.054;5.294;2022-08-02T07:18:33;19.80;31.90
69990;DHT22;57331;52.054;5.294;2022-08-02T07:21:01;19.70;44.50
69990;DHT22;57331;52.054;5.294;2022-08-02T07:23:31;18.70;43.70
69990;DHT22;57331;52.054;5.294;2022-08-02T07:28:30;19.10;44.20
69990;DHT22;57331;52.054;5.294;2022-08-02T07:36:05;21.40;44.50
69990;DHT22;57331;52.054;5.294;2022-08-02T07:38:37;20.10;44.00
69990;DHT22;57331;52.054;5.294;2022-08-02T07:41:06;20.00;43.60
69990;DHT22;57331;52.054;5.294;2022-08-02T07:43:34;21.60;44.80
69990;DHT22;57331;52.054;5.294;2022-08-02T07:48:28;22.10;44.40
69990;DHT22;57331;52.054;5.294;2022-08-02T07:53:22;20.30;43.10
69990;DHT22;57331;52.054;5.294;2022-08-02T07:56:08;20.60;42.90
69990;DHT22;57331;52.054;5.294;2022-08-02T07:58:36;21.40;31.40
69990;DHT22;57331;52.054;5.294;2022-08-02T08:01:03;20.60;42.70
69990;DHT22;57331;52.054;5.294;2022-08-02T08:03:30;23.10;43.90
69990;DHT22;57331;52.054;5.294;2022-08-02T08:13:18;22.10;41.80
69990;DHT22;57331;52.054;5.294;2022-08-02T08:18:19;22.70;30.50
69990;DHT22;57331;52.054;5.294;2022-08-02T08:20:46;23.20;41.60
69990;DHT22;57331;52.054;5.294;2022-08-02T08:25:40;23.80;41.30
69990;DHT22;57331;52.054;5.294;2022-08-02T08:28:07;22.50;40.60
69990;DHT22;57331;52.054;5.294;2022-08-02T08:33:02;23.80;41.00
69990;DHT22;57331;52.054;5.294;2022-08-02T08:35:30;21.70;39.50
69990;DHT22;57331;52.054;5.294;2022-08-02T08:37:56;21.60;38.60
69990;DHT22;57331;52.054;5.294;2022-08-02T08:40:24;24.60;39.40
69990;DHT22;57331;52.054;5.294;2022-08-02T08:42:51;22.10;37.60
69990;DHT22;57331;52.054;5.294;2022-08-02T08:45:18;21.70;37.00
69990;DHT22;57331;52.054;5.294;2022-08-02T08:47:50;24.50;38.80
69990;DHT22;57331;52.054;5.294;2022-08-02T08:50:20;22.40;37.50
69990;DHT22;57331;52.054;5.294;2022-08-02T08:55:27;24.30;38.40
69990;DHT22;57331;52.054;5.294;2022-08-02T08:57:58;25.30;28.00
69990;DHT22;57331;52.054;5.294;2022-08-02T09:00:25;24.50;38.60
69990;DHT22;57331;52.054;5.294;2022-08-02T09:02:53;24.20;37.20
69990;DHT22;57331;52.054;5.294;2022-08-02T09:05:19;22.20;35.90
69990;DHT22;57331;52.054;5.294;2022-08-02T09:07:49;24.20;36.50
69990;DHT22;57331;52.054;5.294;2022-08-02T09:13:24;25.40;36.80
69990;DHT22;57331;52.054;5.294;2022-08-02T09:16:11;24.20;27.30
69990;DHT22;57331;52.054;5.294;2022-08-02T09:18:44;25.30;35.80
69990;DHT22;57331;52.054;5.294;2022-08-02T09:21:14;25.10;35.60
69990;DHT22;57331;52.054;5.294;2022-08-02T09:23:50;25.40;33.60
69990;DHT22;57331;52.054;5.294;2022-08-02T09:28:49;25.40;25.10
69990;DHT22;57331;52.054;5.294;2022-08-02T09:31:22;25.60;25.20
69990;DHT22;57331;52.054;5.294;2022-08-02T09:33:53;25.60;24.80
69990;DHT22;57331;52.054;5.294;2022-08-02T09:36:21;26.90;34.00
69990;DHT22;57331;52.054;5.294;2022-08-02T09:38:59;25.80;24.50
69990;DHT22;57331;52.054;5.294;2022-08-02T09:41:32;26.40;24.10
69990;DHT22;57331;52.054;5.294;2022-08-02T09:44:01;26.10;24.70
69990;DHT22;57331;52.054;5.294;2022-08-02T09:46:34;26.20;23.50
69990;DHT22;57331;52.054;5.294;2022-08-02T09:49:08;26.60;30.80
69990;DHT22;57331;52.054;5.294;2022-08-02T09:51:48;26.40;23.50
69990;DHT22;57331;52.054;5.294;2022-08-02T09:54:18;26.50;23.40
69990;DHT22;57331;52.054;5.294;2022-08-02T09:56:49;27.90;30.80
69990;DHT22;57331;52.054;5.294;2022-08-02T09:59:18;27.10;30.00
69990;DHT22;57331;52.054;5.294;2022-08-02T10:01:46;26.50;22.80
69990;DHT22;57331;52.054;5.294;2022-08-02T10:04:28;27.00;23.20
69990;DHT22;57331;52.054;5.294;2022-08-02T10:06:56;27.10;30.70
69990;DHT22;57331;52.054;5.294;2022-08-02T10:09:26;26.50;23.00
69990;DHT22;57331;52.054;5.294;2022-08-02T10:11:54;26.70;23.00
69990;DHT22;57331;52.054;5.294;2022-08-02T10:14:22;26.90;23.00
69990;DHT22;57331;52.054;5.294;2022-08-02T10:16:50;27.10;29.40
69990;DHT22;57331;52.054;5.294;2022-08-02T10:19:18;27.00;22.50
69990;DHT22;57331;52.054;5.294;2022-08-02T10:22:10;27.20;22.40
69990;DHT22;57331;52.054;5.294;2022-08-02T10:24:39;26.40;28.10
69990;DHT22;57331;52.054;5.294;2022-08-02T10:27:16;27.20;21.40
69990;DHT22;57331;52.054;5.294;2022-08-02T10:29:45;27.20;21.60
69990;DHT22;57331;52.054;5.294;2022-08-02T10:32:36;27.30;21.30
69990;DHT22;57331;52.054;5.294;2022-08-02T10:35:11;28.00;26.40
69990;DHT22;57331;52.054;5.294;2022-08-02T10:37:53;27.60;20.00
69990;DHT22;57331;52.054;5.294;2022-08-02T10:40:22;27.70;19.10
69990;DHT22;57331;52.054;5.294;2022-08-02T10:42:51;27.90;19.10
69990;DHT22;57331;52.054;5.294;2022-08-02T10:45:21;27.80;18.10
69990;DHT22;57331;52.054;5.294;2022-08-02T10:56:00;27.80;17.30
69990;DHT22;57331;52.054;5.294;2022-08-02T10:58:29;27.70;17.70
69990;DHT22;57331;52.054;5.294;2022-08-02T11:01:29;27.70;16.90
69990;DHT22;57331;52.054;5.294;2022-08-02T11:04:06;28.10;16.60
69990;DHT22;57331;52.054;5.294;2022-08-02T11:07:05;28.20;17.10
69990;DHT22;57331;52.054;5.294;2022-08-02T11:09:32;28.50;16.00
69990;DHT22;57331;52.054;5.294;2022-08-02T11:12:08;29.00;16.10
69990;DHT22;57331;52.054;5.294;2022-08-02T11:14:38;29.00;14.80
69990;DHT22;57331;52.054;5.294;2022-08-02T11:17:11;27.90;19.10
69990;DHT22;57331;52.054;5.294;2022-08-02T11:22:39;29.30;13.20
69990;DHT22;57331;52.054;5.294;2022-08-02T11:27:59;29.60;13.00
69990;DHT22;57331;52.054;5.294;2022-08-02T11:30:26;30.00;13.10
69990;DHT22;57331;52.054;5.294;2022-08-02T11:32:57;30.20;13.50
69990;DHT22;57331;52.054;5.294;2022-08-02T11:35:32;30.60;13.10
69990;DHT22;57331;52.054;5.294;2022-08-02T11:38:12;30.40;12.40
69990;DHT22;57331;52.054;5.294;2022-08-02T11:40:41;30.40;12.10
69990;DHT22;57331;52.054;5.294;2022-08-02T11:43:17;30.50;12.40
69990;DHT22;57331;52.054;5.294;2022-08-02T11:45:44;30.70;11.80
69990;DHT22;57331;52.054;5.294;2022-08-02T11:48:11;31.00;12.30
69990;DHT22;57331;52.054;5.294;2022-08-02T11:50:39;31.20;11.50
69990;DHT22;57331;52.054;5.294;2022-08-02T11:53:15;31.10;10.90
69990;DHT22;57331;52.054;5.294;2022-08-02T11:55:42;31.10;11.70
69990;DHT22;57331;52.054;5.294;2022-08-02T11:58:09;31.10;11.00
69990;DHT22;57331;52.054;5.294;2022-08-02T12:00:37;31.20;10.90
69990;DHT22;57331;52.054;5.294;2022-08-02T12:03:05;31.20;10.80
69990;DHT22;57331;52.054;5.294;2022-08-02T12:05:32;31.20;14.90
69990;DHT22;57331;52.054;5.294;2022-08-02T12:08:20;31.10;9.90
69990;DHT22;57331;52.054;5.294;2022-08-02T12:10:51;31.10;10.80
69990;DHT22;57331;52.054;5.294;2022-08-02T12:13:18;31.50;10.70
69990;DHT22;57331;52.054;5.294;2022-08-02T12:15:46;30.70;14.20
69990;DHT22;57331;52.054;5.294;2022-08-02T12:18:14;31.60;9.60
69990;DHT22;57331;52.054;5.294;2022-08-02T12:21:00;31.80;9.80
69990;DHT22;57331;52.054;5.294;2022-08-02T12:23:27;32.90;14.40
69990;DHT22;57331;52.054;5.294;2022-08-02T12:26:05;33.00;12.80
69990;DHT22;57331;52.054;5.294;2022-08-02T12:28:36;32.50;8.50
69990;DHT22;57331;52.054;5.294;2022-08-02T12:31:08;32.70;8.60
69990;DHT22;57331;52.054;5.294;2022-08-02T12:36:22;32.90;13.50
69990;DHT22;57331;52.054;5.294;2022-08-02T12:38:59;32.30;7.60
69990;DHT22;57331;52.054;5.294;2022-08-02T12:41:28;32.40;7.50
69990;DHT22;57331;52.054;5.294;2022-08-02T12:43:58;32.60;12.30
69990;DHT22;57331;52.054;5.294;2022-08-02T12:46:26;32.10;7.30
69990;DHT22;57331;52.054;5.294;2022-08-02T12:48:53;32.10;7.00
69990;DHT22;57331;52.054;5.294;2022-08-02T12:51:39;32.10;7.40
69990;DHT22;57331;52.054;5.294;2022-08-02T12:54:30;32.10;7.90
69990;DHT22;57331;52.054;5.294;2022-08-02T12:57:18;32.50;8.10
69990;DHT22;57331;52.054;5.294;2022-08-02T12:59:51;32.80;7.90
69990;DHT22;57331;52.054;5.294;2022-08-02T13:02:18;32.90;6.50
69990;DHT22;57331;52.054;5.294;2022-08-02T13:04:46;33.00;7.10
69990;DHT22;57331;52.054;5.294;2022-08-02T13:07:17;33.10;6.00
69990;DHT22;57331;52.054;5.294;2022-08-02T13:09:44;33.10;6.60
69990;DHT22;57331;52.054;5.294;2022-08-02T13:12:12;33.30;6.80
69990;DHT22;57331;52.054;5.294;2022-08-02T13:14:40;33.30;6.00
69990;DHT22;57331;52.054;5.294;2022-08-02T13:17:09;33.40;6.00
69990;DHT22;57331;52.054;5.294;2022-08-02T13:19:36;33.40;5.50
69990;DHT22;57331;52.054;5.294;2022-08-02T13:22:04;33.10;5.10
69990;DHT22;57331;52.054;5.294;2022-08-02T13:24:34;33.20;5.20
69990;DHT22;57331;52.054;5.294;2022-08-02T13:27:06;33.50;5.00
69990;DHT22;57331;52.054;5.294;2022-08-02T13:29:36;33.70;4.50
69990;DHT22;57331;52.054;5.294;2022-08-02T13:32:03;33.90;4.30
69990;DHT22;57331;52.054;5.294;2022-08-02T13:34:30;33.90;3.50
69990;DHT22;57331;52.054;5.294;2022-08-02T13:36:57;33.60;4.00
69990;DHT22;57331;52.054;5.294;2022-08-02T13:39:23;33.40;5.20
69990;DHT22;57331;52.054;5.294;2022-08-02T13:41:50;33.60;4.50
69990;DHT22;57331;52.054;5.294;2022-08-02T13:44:17;33.90;4.80
69990;DHT22;57331;52.054;5.294;2022-08-02T13:46:44;33.90;4.30
69990;DHT22;57331;52.054;5.294;2022-08-02T13:49:12;34.00;4.60
69990;DHT22;57331;52.054;5.294;2022-08-02T13:51:48;34.30;4.30
69990;DHT22;57331;52.054;5.294;2022-08-02T13:54:15;34.40;3.90
69990;DHT22;57331;52.054;5.294;2022-08-02T13:56:43;34.60;4.00
69990;DHT22;57331;52.054;5.294;2022-08-02T13:59:10;33.90;3.70
69990;DHT22;57331;52.054;5.294;2022-08-02T14:01:57;33.40;4.20
69990;DHT22;57331;52.054;5.294;2022-08-02T14:04:25;33.00;5.10
69990;DHT22;57331;52.054;5.294;2022-08-02T14:06:52;32.60;5.40
69990;DHT22;57331;52.054;5.294;2022-08-02T14:09:19;32.40;5.80
69990;DHT22;57331;52.054;5.294;2022-08-02T14:11:47;33.90;7.00
69990;DHT22;57331;52.054;5.294;2022-08-02T14:14:14;32.40;5.80
69990;DHT22;57331;52.054;5.294;2022-08-02T14:16:46;32.60;6.10
69990;DHT22;57331;52.054;5.294;2022-08-02T14:19:13;33.00;6.10
69990;DHT22;57331;52.054;5.294;2022-08-02T14:21:43;33.30;6.00
69990;DHT22;57331;52.054;5.294;2022-08-02T14:24:18;33.40;6.00
69990;DHT22;57331;52.054;5.294;2022-08-02T14:26:46;33.90;6.10
69990;DHT22;57331;52.054;5.294;2022-08-02T14:29:14;34.10;5.50
69990;DHT22;57331;52.054;5.294;2022-08-02T14:31:41;34.20;5.50
69990;DHT22;57331;52.054;5.294;2022-08-02T14:34:11;34.20;5.30
69990;DHT22;57331;52.054;5.294;2022-08-02T14:36:39;34.40;5.90
69990;DHT22;57331;52.054;5.294;2022-08-02T14:39:05;34.60;5.70
69990;DHT22;57331;52.054;5.294;2022-08-02T14:41:33;34.60;5.60
69990;DHT22;57331;52.054;5.294;2022-08-02T14:44:22;34.50;5.80
69990;DHT22;57331;52.054;5.294;2022-08-02T14:46:48;34.40;6.10
69990;DHT22;57331;52.054;5.294;2022-08-02T14:49:18;34.50;6.30
69990;DHT22;57331;52.054;5.294;2022-08-02T14:51:55;34.40;6.40
69990;DHT22;57331;52.054;5.294;2022-08-02T14:54:26;34.40;6.50
69990;DHT22;57331;52.054;5.294;2022-08-02T14:56:57;34.40;5.90
69990;DHT22;57331;52.054;5.294;2022-08-02T14:59:24;34.20;6.50
69990;DHT22;57331;52.054;5.294;2022-08-02T15:01:52;34.30;6.30
69990;DHT22;57331;52.054;5.294;2022-08-02T15:04:19;34.50;6.30
69990;DHT22;57331;52.054;5.294;2022-08-02T15:06:46;34.40;6.40
69990;DHT22;57331;52.054;5.294;2022-08-02T15:09:13;34.40;6.70
69990;DHT22;57331;52.054;5.294;2022-08-02T15:11:39;34.40;6.80
69990;DHT22;57331;52.054;5.294;2022-08-02T15:14:17;34.60;6.80
69990;DHT22;57331;52.054;5.294;2022-08-02T15:16:52;34.70;6.70
69990;DHT22;57331;52.054;5.294;2022-08-02T15:19:25;34.80;6.60
69990;DHT22;57331;52.054;5.294;2022-08-02T15:22:13;34.60;6.50
69990;DHT22;57331;52.054;5.294;2022-08-02T15:24:44;34.40;6.80
69990;DHT22;57331;52.054;5.294;2022-08-02T15:27:11;34.20;7.20
69990;DHT22;57331;52.054;5.294;2022-08-02T15:29:43;33.90;7.30
69990;DHT22;57331;52.054;5.294;2022-08-02T15:32:10;33.70;7.90
69990;DHT22;57331;52.054;5.294;2022-08-02T15:34:38;33.60;8.10
69990;DHT22;57331;52.054;5.294;2022-08-02T15:37:05;33.50;8.20
69990;DHT22;57331;52.054;5.294;2022-08-02T15:39:32;33.40;8.40
69990;DHT22;57331;52.054;5.294;2022-08-02T15:41:59;33.90;9.10
69990;DHT22;57331;52.054;5.294;2022-08-02T15:44:26;33.80;8.40
69990;DHT22;57331;52.054;5.294;2022-08-02T15:46:53;33.70;8.20
69990;DHT22;57331;52.054;5.294;2022-08-02T15:49:20;33.60;8.40
69990;DHT22;57331;52.054;5.294;2022-08-02T15:51:52;33.60;8.60
69990;DHT22;57331;52.054;5.294;2022-08-02T15:54:20;33.60;8.60
69990;DHT22;57331;52.054;5.294;2022-08-02T15:56:46;33.60;8.70
69990;DHT22;57331;52.054;5.294;2022-08-02T15:59:13;33.60;8.70
69990;DHT22;57331;52.054;5.294;2022-08-02T16:01:40;32.10;8.40
69990;DHT22;57331;52.054;5.294;2022-08-02T16:04:13;33.10;9.40
69990;DHT22;57331;52.054;5.294;2022-08-02T16:06:40;33.20;9.50
69990;DHT22;57331;52.054;5.294;2022-08-02T16:09:07;33.20;9.40
69990;DHT22;57331;52.054;5.294;2022-08-02T16:11:33;33.30;9.70
69990;DHT22;57331;52.054;5.294;2022-08-02T16:14:00;33.40;9.50
69990;DHT22;57331;52.054;5.294;2022-08-02T16:16:29;33.70;9.40
69990;DHT22;57331;52.054;5.294;2022-08-02T16:18:57;34.00;9.10
69990;DHT22;57331;52.054;5.294;2022-08-02T16:21:24;33.50;9.20
69990;DHT22;57331;52.054;5.294;2022-08-02T16:23:52;33.30;9.40
69990;DHT22;57331;52.054;5.294;2022-08-02T16:26:29;33.40;9.80
69990;DHT22;57331;52.054;5.294;2022-08-02T16:28:58;33.40;9.80
69990;DHT22;57331;52.054;5.294;2022-08-02T16:31:25;33.60;10.00
69990;DHT22;57331;52.054;5.294;2022-08-02T16:33:52;33.40;9.80
69990;DHT22;57331;52.054;5.294;2022-08-02T16:36:23;33.20;10.00
69990;DHT22;57331;52.054;5.294;2022-08-02T16:38:51;32.80;10.40
69990;DHT22;57331;52.054;5.294;2022-08-02T16:41:18;32.40;11.00
69990;DHT22;57331;52.054;5.294;2022-08-02T16:43:45;32.30;11.60
69990;DHT22;57331;52.054;5.294;2022-08-02T16:46:12;32.60;11.60
69990;DHT22;57331;52.054;5.294;2022-08-02T16:48:39;32.80;11.10
69990;DHT22;57331;52.054;5.294;2022-08-02T16:51:06;32.90;11.20
69990;DHT22;57331;52.054;5.294;2022-08-02T16:53:41;33.00;11.20
69990;DHT22;57331;52.054;5.294;2022-08-02T16:56:29;33.10;10.90
69990;DHT22;57331;52.054;5.294;2022-08-02T16:58:56;33.20;10.90
69990;DHT22;57331;52.054;5.294;2022-08-02T17:01:26;33.40;10.80
69990;DHT22;57331;52.054;5.294;2022-08-02T17:04:13;33.40;10.70
69990;DHT22;57331;52.054;5.294;2022-08-02T17:06:42;33.60;10.80
69990;DHT22;57331;52.054;5.294;2022-08-02T17:09:18;33.50;10.80
69990;DHT22;57331;52.054;5.294;2022-08-02T17:12:05;33.40;10.80
69990;DHT22;57331;52.054;5.294;2022-08-02T17:14:34;33.40;11.20
69990;DHT22;57331;52.054;5.294;2022-08-02T17:17:22;33.40;11.00
69990;DHT22;57331;52.054;5.294;2022-08-02T17:20:00;33.30;11.10
69990;DHT22;57331;52.054;5.294;2022-08-02T17:22:27;33.20;11.30
69990;DHT22;57331;52.054;5.294;2022-08-02T17:24:54;32.90;11.60
69990;DHT22;57331;52.054;5.294;2022-08-02T17:27:25;33.00;11.80
69990;DHT22;57331;52.054;5.294;2022-08-02T17:29:52;33.00;11.70
69990;DHT22;57331;52.054;5.294;2022-08-02T17:32:19;32.90;11.60
69990;DHT22;57331;52.054;5.294;2022-08-02T17:34:46;32.90;11.90
69990;DHT22;57331;52.054;5.294;2022-08-02T17:37:25;33.00;12.00
69990;DHT22;57331;52.054;5.294;2022-08-02T17:39:54;33.10;12.00
69990;DHT22;57331;52.054;5.294;2022-08-02T17:42:23;32.90;12.60
69990;DHT22;57331;52.054;5.294;2022-08-02T17:44:55;32.90;12.20
69990;DHT22;57331;52.054;5.294;2022-08-02T17:47:42;32.80;12.50
69990;DHT22;57331;52.054;5.294;2022-08-02T17:50:29;32.60;12.60
69990;DHT22;57331;52.054;5.294;2022-08-02T17:52:56;32.50;12.90
69990;DHT22;57331;52.054;5.294;2022-08-02T17:55:24;32.20;13.20
69990;DHT22;57331;52.054;5.294;2022-08-02T17:57:50;32.00;13.60
69990;DHT22;57331;52.054;5.294;2022-08-02T18:00:34;31.80;13.90
69990;DHT22;57331;52.054;5.294;2022-08-02T18:03:02;31.60;14.30
69990;DHT22;57331;52.054;5.294;2022-08-02T18:05:34;31.40;14.70
69990;DHT22;57331;52.054;5.294;2022-08-02T18:08:20;31.10;15.20
69990;DHT22;57331;52.054;5.294;2022-08-02T18:10:53;30.90;15.50
69990;DHT22;57331;52.054;5.294;2022-08-02T18:13:21;29.90;20.60
69990;DHT22;57331;52.054;5.294;2022-08-02T18:15:49;30.40;16.10
69990;DHT22;57331;52.054;5.294;2022-08-02T18:18:24;30.30;16.50
69990;DHT22;57331;52.054;5.294;2022-08-02T18:20:56;30.00;16.60
69990;DHT22;57331;52.054;5.294;2022-08-02T18:23:23;29.90;17.00
69990;DHT22;57331;52.054;5.294;2022-08-02T18:25:50;29.80;17.20
69990;DHT22;57331;52.054;5.294;2022-08-02T18:28:21;29.60;17.60
69990;DHT22;57331;52.054;5.294;2022-08-02T18:30:52;29.80;18.00
69990;DHT22;57331;52.054;5.294;2022-08-02T18:33:19;29.30;18.00